sensor_id;sensor_type;location;lat;lon;timestamp;temperature;humidity
15574;DHT22;7888;46.748;8.102;2023-02-24T00:01:25;11.60;50.90
15574;DHT22;7888;46.748;8.102;2023-02-24T00:03:57;11.60;51.00
15574;DHT22;7888;46.748;8.102;2023-02-24T00:06:28;11.60;51.30
15574;DHT22;7888;46.748;8.102;2023-02-24T00:09:10;11.50;50.80
15574;DHT22;7888;46.748;8.102;2023-02-24T00:11:41;11.50;50.80
15574;DHT22;7888;46.748;8.102;2023-02-24T00:14:11;11.50;50.90
15574;DHT22;7888;46.748;8.102;2023-02-24T00:16:45;11.50;51.00
15574;DHT22;7888;46.748;8.102;2023-02-24T00:19:14;11.50;51.30
15574;DHT22;7888;46.748;8.102;2023-02-24T00:21:43;11.40;50.90
15574;DHT22;7888;46.748;8.102;2023-02-24T00:24:09;11.40;50.80
15574;DHT22;7888;46.748;8.102;2023-02-24T00:26:36;11.40;50.60
15574;DHT22;7888;46.748;8.102;2023-02-24T00:29:09;11.40;50.60
15574;DHT22;7888;46.748;8.102;2023-02-24T00:31:37;11.40;50.70
15574;DHT22;7888;46.748;8.102;2023-02-24T00:34:08;11.30;50.60
15574;DHT22;7888;46.748;8.102;2023-02-24T00:36:37;11.30;50.40
15574;DHT22;7888;46.748;8.102;2023-02-24T00:39:06;11.30;50.60
15574;DHT22;7888;46.748;8.102;2023-02-24T00:41:39;11.30;50.90
15574;DHT22;7888;46.748;8.102;2023-02-24T00:44:07;11.30;51.00
15574;DHT22;7888;46.748;8.102;2023-02-24T00:46:41;11.30;51.20
15574;DHT22;7888;46.748;8.102;2023-02-24T00:49:14;11.30;51.20
15574;DHT22;7888;46.748;8.102;2023-02-24T00:51:45;11.30;51.20
15574;DHT22;7888;46.748;8.102;2023-02-24T00:54:14;11.30;51.20
15574;DHT22;7888;46.748;8.102;2023-02-24T00:56:46;11.30;51.10
15574;DHT22;7888;46.748;8.102;2023-02-24T00:59:15;11.30;51.30
15574;DHT22;7888;46.748;8.102;2023-02-24T01:01:48;11.30;51.10
15574;DHT22;7888;46.748;8.102;2023-02-24T01:04:16;11.30;51.00
15574;DHT22;7888;46.748;8.102;2023-02-24T01:06:52;11.20;50.90
15574;DHT22;7888;46.748;8.102;2023-02-24T01:09:25;11.20;51.10
15574;DHT22;7888;46.748;8.102;2023-02-24T01:11:53;11.20;50.80
15574;DHT22;7888;46.748;8.102;2023-02-24T01:14:38;11.20;50.90
15574;DHT22;7888;46.748;8.102;2023-02-24T01:17:05;11.20;50.90
15574;DHT22;7888;46.748;8.102;2023-02-24T01:19:32;11.10;51.00
15574;DHT22;7888;46.748;8.102;2023-02-24T01:22:01;11.10;51.00
15574;DHT22;7888;46.748;8.102;2023-02-24T01:24:34;11.10;51.20
15574;DHT22;7888;46.748;8.102;2023-02-24T01:27:06;11.10;51.50
15574;DHT22;7888;46.748;8.102;2023-02-24T01:29:34;11.10;51.30
15574;DHT22;7888;46.748;8.102;2023-02-24T01:32:17;11.00;51.20
15574;DHT22;7888;46.748;8.102;2023-02-24T01:34:45;11.00;51.30
15574;DHT22;7888;46.748;8.102;2023-02-24T01:37:11;11.00;51.00
15574;DHT22;7888;46.748;8.102;2023-02-24T01:39:41;11.00;51.00
15574;DHT22;7888;46.748;8.102;2023-02-24T01:42:12;11.00;51.10
15574;DHT22;7888;46.748;8.102;2023-02-24T01:47:10;11.00;50.90
15574;DHT22;7888;46.748;8.102;2023-02-24T01:49:42;10.90;50.80
15574;DHT22;7888;46.748;8.102;2023-02-24T01:55:13;10.90;50.90
15574;DHT22;7888;46.748;8.102;2023-02-24T01:58:05;10.90;51.00
15574;DHT22;7888;46.748;8.102;2023-02-24T02:00:36;10.90;50.90
15574;DHT22;7888;46.748;8.102;2023-02-24T02:03:15;10.90;50.90
15574;DHT22;7888;46.748;8.102;2023-02-24T02:05:49;10.80;50.90
15574;DHT22;7888;46.748;8.102;2023-02-24T02:08:17;10.80;50.90
15574;DHT22;7888;46.748;8.102;2023-02-24T02:10:46;10.80;51.00
15574;DHT22;7888;46.748;8.102;2023-02-24T02:13:13;10.80;51.00
15574;DHT22;7888;46.748;8.102;2023-02-24T02:24:54;10.70;51.30
15574;DHT22;7888;46.748;8.102;2023-02-24T02:41:25;10.60;51.50
15574;DHT22;7888;46.748;8.102;2023-02-24T02:44:22;10.60;51.30
15574;DHT22;7888;46.748;8.102;2023-02-24T02:50:48;10.60;51.30
15574;DHT22;7888;46.748;8.102;2023-02-24T02:53:32;10.60;51.40
15574;DHT22;7888;46.748;8.102;2023-02-24T02:56:26;10.60;51.40
15574;DHT22;7888;46.748;8.102;2023-02-24T02:58:58;10.60;51.50
15574;DHT22;7888;46.748;8.102;2023-02-24T03:01:32;10.60;51.40
15574;DHT22;7888;46.748;8.102;2023-02-24T03:04:07;10.60;51.60
15574;DHT22;7888;46.748;8.102;2023-02-24T03:06:41;10.60;51.50
15574;DHT22;7888;46.748;8.102;2023-02-24T03:09:29;10.60;51.70
15574;DHT22;7888;46.748;8.102;2023-02-24T03:12:05;10.60;51.80
15574;DHT22;7888;46.748;8.102;2023-02-24T03:14:38;10.60;52.00
15574;DHT22;7888;46.748;8.102;2023-02-24T03:17:14;10.60;52.00
15574;DHT22;7888;46.748;8.102;2023-02-24T03:19:46;10.60;52.00
15574;DHT22;7888;46.748;8.102;2023-02-24T03:22:30;10.50;51.80
15574;DHT22;7888;46.748;8.102;2023-02-24T03:25:01;10.50;52.00
15574;DHT22;7888;46.748;8.102;2023-02-24T03:27:48;10.50;51.80
15574;DHT22;7888;46.748;8.102;2023-02-24T03:30:27;10.50;52.00
15574;DHT22;7888;46.748;8.102;2023-02-24T03:33:10;10.50;52.00
15574;DHT22;7888;46.748;8.102;2023-02-24T03:36:01;10.50;51.80
15574;DHT22;7888;46.748;8.102;2023-02-24T03:38:29;10.50;51.80
15574;DHT22;7888;46.748;8.102;2023-02-24T03:40:57;10.50;51.80
15574;DHT22;7888;46.748;8.102;2023-02-24T03:43:29;10.50;51.80
15574;DHT22;7888;46.748;8.102;2023-02-24T03:45:58;10.50;52.10
15574;DHT22;7888;46.748;8.102;2023-02-24T03:48:27;10.60;52.10
15574;DHT22;7888;46.748;8.102;2023-02-24T03:50:53;10.60;52.20
15574;DHT22;7888;46.748;8.102;2023-02-24T03:53:42;10.60;52.10
15574;DHT22;7888;46.748;8.102;2023-02-24T03:56:35;10.60;52.70
15574;DHT22;7888;46.748;8.102;2023-02-24T04:01:55;10.60;52.20
15574;DHT22;7888;46.748;8.102;2023-02-24T04:04:39;10.60;52.30
15574;DHT22;7888;46.748;8.102;2023-02-24T04:07:36;10.50;52.10
15574;DHT22;7888;46.748;8.102;2023-02-24T04:10:19;10.60;52.50
15574;DHT22;7888;46.748;8.102;2023-02-24T04:13:01;10.60;52.40
15574;DHT22;7888;46.748;8.102;2023-02-24T04:15:36;10.60;52.30
15574;DHT22;7888;46.748;8.102;2023-02-24T04:18:14;10.50;52.00
15574;DHT22;7888;46.748;8.102;2023-02-24T04:20:41;10.50;52.30
15574;DHT22;7888;46.748;8.102;2023-02-24T04:23:16;10.50;52.20
15574;DHT22;7888;46.748;8.102;2023-02-24T04:25:49;10.50;52.60
15574;DHT22;7888;46.748;8.102;2023-02-24T04:28:18;10.50;52.40
15574;DHT22;7888;46.748;8.102;2023-02-24T04:30:49;10.50;52.30
15574;DHT22;7888;46.748;8.102;2023-02-24T04:33:18;10.50;52.40
15574;DHT22;7888;46.748;8.102;2023-02-24T04:35:46;10.50;52.30
15574;DHT22;7888;46.748;8.102;2023-02-24T04:38:18;10.50;52.30
15574;DHT22;7888;46.748;8.102;2023-02-24T04:40:44;10.50;52.30
15574;DHT22;7888;46.748;8.102;2023-02-24T04:43:10;10.50;52.30
15574;DHT22;7888;46.748;8.102;2023-02-24T04:45:37;10.50;52.50
15574;DHT22;7888;46.748;8.102;2023-02-24T04:48:07;10.50;52.40
15574;DHT22;7888;46.748;8.102;2023-02-24T04:50:39;10.50;52.10
15574;DHT22;7888;46.748;8.102;2023-02-24T04:53:12;10.40;52.10
15574;DHT22;7888;46.748;8.102;2023-02-24T04:55:42;10.40;52.10
15574;DHT22;7888;46.748;8.102;2023-02-24T04:58:15;10.40;52.10
15574;DHT22;7888;46.748;8.102;2023-02-24T05:00:49;10.40;52.00
15574;DHT22;7888;46.748;8.102;2023-02-24T05:03:24;10.40;52.30
15574;DHT22;7888;46.748;8.102;2023-02-24T05:05:57;10.30;52.20
15574;DHT22;7888;46.748;8.102;2023-02-24T05:08:28;10.30;52.20
15574;DHT22;7888;46.748;8.102;2023-02-24T05:10:55;10.30;52.10
15574;DHT22;7888;46.748;8.102;2023-02-24T05:13:27;10.30;51.90
15574;DHT22;7888;46.748;8.102;2023-02-24T05:16:04;10.30;51.70
15574;DHT22;7888;46.748;8.102;2023-02-24T05:18:32;10.20;51.90
15574;DHT22;7888;46.748;8.102;2023-02-24T05:21:08;10.20;51.70
15574;DHT22;7888;46.748;8.102;2023-02-24T05:23:57;10.20;51.90
15574;DHT22;7888;46.748;8.102;2023-02-24T05:26:24;10.20;51.60
15574;DHT22;7888;46.748;8.102;2023-02-24T05:28:53;10.20;51.60
15574;DHT22;7888;46.748;8.102;2023-02-24T05:31:25;10.20;51.60
15574;DHT22;7888;46.748;8.102;2023-02-24T05:34:01;10.20;51.60
15574;DHT22;7888;46.748;8.102;2023-02-24T05:36:35;10.20;51.80
15574;DHT22;7888;46.748;8.102;2023-02-24T05:39:05;10.20;51.90
15574;DHT22;7888;46.748;8.102;2023-02-24T05:41:34;10.10;51.60
15574;DHT22;7888;46.748;8.102;2023-02-24T05:44:05;10.10;51.60
15574;DHT22;7888;46.748;8.102;2023-02-24T05:46:43;10.10;51.60
15574;DHT22;7888;46.748;8.102;2023-02-24T05:49:19;10.10;51.40
15574;DHT22;7888;46.748;8.102;2023-02-24T05:51:53;10.10;51.50
15574;DHT22;7888;46.748;8.102;2023-02-24T05:54:32;10.10;51.20
15574;DHT22;7888;46.748;8.102;2023-02-24T05:57:12;10.10;51.70
15574;DHT22;7888;46.748;8.102;2023-02-24T05:59:42;10.00;51.80
15574;DHT22;7888;46.748;8.102;2023-02-24T06:02:11;10.00;51.70
15574;DHT22;7888;46.748;8.102;2023-02-24T06:04:41;10.00;51.50
15574;DHT22;7888;46.748;8.102;2023-02-24T06:07:19;10.00;51.50
15574;DHT22;7888;46.748;8.102;2023-02-24T06:09:51;10.00;51.50
15574;DHT22;7888;46.748;8.102;2023-02-24T06:12:20;10.00;51.40
15574;DHT22;7888;46.748;8.102;2023-02-24T06:14:47;10.00;51.50
15574;DHT22;7888;46.748;8.102;2023-02-24T06:17:16;9.90;51.40
15574;DHT22;7888;46.748;8.102;2023-02-24T06:19:44;9.90;51.60
15574;DHT22;7888;46.748;8.102;2023-02-24T06:22:13;9.90;51.60
15574;DHT22;7888;46.748;8.102;2023-02-24T06:24:40;9.90;51.50
15574;DHT22;7888;46.748;8.102;2023-02-24T06:27:13;9.90;51.70
15574;DHT22;7888;46.748;8.102;2023-02-24T06:29:48;9.90;51.60
15574;DHT22;7888;46.748;8.102;2023-02-24T06:32:20;9.80;51.70
15574;DHT22;7888;46.748;8.102;2023-02-24T06:34:48;9.90;51.80
15574;DHT22;7888;46.748;8.102;2023-02-24T06:37:16;9.90;51.90
15574;DHT22;7888;46.748;8.102;2023-02-24T06:39:42;9.90;52.00
15574;DHT22;7888;46.748;8.102;2023-02-24T06:42:10;9.90;52.10
15574;DHT22;7888;46.748;8.102;2023-02-24T06:44:38;9.80;52.20
15574;DHT22;7888;46.748;8.102;2023-02-24T06:47:09;9.90;52.20
15574;DHT22;7888;46.748;8.102;2023-02-24T06:49:37;9.80;52.20
15574;DHT22;7888;46.748;8.102;2023-02-24T06:52:03;9.90;52.20
15574;DHT22;7888;46.748;8.102;2023-02-24T06:54:30;9.90;52.40
15574;DHT22;7888;46.748;8.102;2023-02-24T06:57:00;9.90;52.40
15574;DHT22;7888;46.748;8.102;2023-02-24T06:59:28;9.90;52.40
15574;DHT22;7888;46.748;8.102;2023-02-24T07:01:55;9.90;52.30
15574;DHT22;7888;46.748;8.102;2023-02-24T07:04:22;9.90;52.40
15574;DHT22;7888;46.748;8.102;2023-02-24T07:06:53;9.90;52.30
15574;DHT22;7888;46.748;8.102;2023-02-24T07:09:28;9.90;52.50
15574;DHT22;7888;46.748;8.102;2023-02-24T07:11:55;9.90;52.40
15574;DHT22;7888;46.748;8.102;2023-02-24T07:14:23;9.90;52.30
15574;DHT22;7888;46.748;8.102;2023-02-24T07:16:51;9.90;52.40
15574;DHT22;7888;46.748;8.102;2023-02-24T07:19:25;9.90;52.50
15574;DHT22;7888;46.748;8.102;2023-02-24T07:21:58;9.90;52.60
15574;DHT22;7888;46.748;8.102;2023-02-24T07:24:29;10.00;52.50
15574;DHT22;7888;46.748;8.102;2023-02-24T07:27:00;10.00;52.40
15574;DHT22;7888;46.748;8.102;2023-02-24T07:29:47;10.00;52.70
15574;DHT22;7888;46.748;8.102;2023-02-24T07:32:14;10.00;52.70
15574;DHT22;7888;46.748;8.102;2023-02-24T07:34:42;10.00;52.80
15574;DHT22;7888;46.748;8.102;2023-02-24T07:37:09;10.10;53.00
15574;DHT22;7888;46.748;8.102;2023-02-24T07:39:38;10.10;53.10
15574;DHT22;7888;46.748;8.102;2023-02-24T07:42:06;10.20;53.20
15574;DHT22;7888;46.748;8.102;2023-02-24T07:44:33;10.20;53.10
15574;DHT22;7888;46.748;8.102;2023-02-24T07:46:59;10.30;53.10
15574;DHT22;7888;46.748;8.102;2023-02-24T07:49:32;10.40;53.20
15574;DHT22;7888;46.748;8.102;2023-02-24T07:51:58;10.40;53.40
15574;DHT22;7888;46.748;8.102;2023-02-24T07:54:26;10.50;53.40
15574;DHT22;7888;46.748;8.102;2023-02-24T07:56:55;10.60;53.50
15574;DHT22;7888;46.748;8.102;2023-02-24T07:59:31;10.70;53.50
15574;DHT22;7888;46.748;8.102;2023-02-24T08:02:00;10.80;53.60
15574;DHT22;7888;46.748;8.102;2023-02-24T08:04:29;11.00;53.60
15574;DHT22;7888;46.748;8.102;2023-02-24T08:06:57;11.10;53.50
15574;DHT22;7888;46.748;8.102;2023-02-24T08:09:29;11.20;53.20
15574;DHT22;7888;46.748;8.102;2023-02-24T08:12:19;11.30;53.10
15574;DHT22;7888;46.748;8.102;2023-02-24T08:14:48;11.40;53.10
15574;DHT22;7888;46.748;8.102;2023-02-24T08:17:22;11.60;53.00
15574;DHT22;7888;46.748;8.102;2023-02-24T08:19:51;11.60;53.00
15574;DHT22;7888;46.748;8.102;2023-02-24T08:22:40;11.70;52.90
15574;DHT22;7888;46.748;8.102;2023-02-24T08:25:09;11.90;52.90
15574;DHT22;7888;46.748;8.102;2023-02-24T08:27:43;11.90;52.70
15574;DHT22;7888;46.748;8.102;2023-02-24T08:30:11;12.00;52.60
15574;DHT22;7888;46.748;8.102;2023-02-24T08:32:52;12.10;52.60
15574;DHT22;7888;46.748;8.102;2023-02-24T08:35:24;12.20;52.70
15574;DHT22;7888;46.748;8.102;2023-02-24T08:38:00;12.30;53.00
15574;DHT22;7888;46.748;8.102;2023-02-24T08:40:37;12.50;53.60
15574;DHT22;7888;46.748;8.102;2023-02-24T08:43:59;12.60;52.90
15574;DHT22;7888;46.748;8.102;2023-02-24T08:46:20;12.80;52.80
15574;DHT22;7888;46.748;8.102;2023-02-24T08:48:55;13.00;52.60
15574;DHT22;7888;46.748;8.102;2023-02-24T08:51:26;13.20;52.60
15574;DHT22;7888;46.748;8.102;2023-02-24T08:53:58;13.30;52.40
15574;DHT22;7888;46.748;8.102;2023-02-24T08:56:36;13.50;52.00
15574;DHT22;7888;46.748;8.102;2023-02-24T08:59:12;13.60;51.40
15574;DHT22;7888;46.748;8.102;2023-02-24T09:04:48;13.70;50.90
15574;DHT22;7888;46.748;8.102;2023-02-24T09:07:30;13.70;50.40
15574;DHT22;7888;46.748;8.102;2023-02-24T09:10:02;13.60;50.10
15574;DHT22;7888;46.748;8.102;2023-02-24T09:12:46;13.60;50.10
15574;DHT22;7888;46.748;8.102;2023-02-24T09:15:14;13.60;50.20
15574;DHT22;7888;46.748;8.102;2023-02-24T09:17:42;13.70;50.40
15574;DHT22;7888;46.748;8.102;2023-02-24T09:20:10;13.70;50.50
15574;DHT22;7888;46.748;8.102;2023-02-24T09:22:58;13.80;50.50
15574;DHT22;7888;46.748;8.102;2023-02-24T09:25:39;13.90;50.30
15574;DHT22;7888;46.748;8.102;2023-02-24T09:28:09;14.00;50.00
15574;DHT22;7888;46.748;8.102;2023-02-24T09:30:54;14.10;50.20
15574;DHT22;7888;46.748;8.102;2023-02-24T09:33:30;14.20;49.80
15574;DHT22;7888;46.748;8.102;2023-02-24T09:36:17;14.30;50.20
15574;DHT22;7888;46.748;8.102;2023-02-24T09:39:07;14.40;50.10
15574;DHT22;7888;46.748;8.102;2023-02-24T09:41:47;14.60;50.20
15574;DHT22;7888;46.748;8.102;2023-02-24T09:44:42;14.60;50.00
15574;DHT22;7888;46.748;8.102;2023-02-24T09:47:25;14.80;50.00
15574;DHT22;7888;46.748;8.102;2023-02-24T09:52:45;15.00;49.60
15574;DHT22;7888;46.748;8.102;2023-02-24T10:06:42;15.70;48.90
15574;DHT22;7888;46.748;8.102;2023-02-24T10:12:12;16.00;48.30
15574;DHT22;7888;46.748;8.102;2023-02-24T10:17:53;16.20;48.60
15574;DHT22;7888;46.748;8.102;2023-02-24T10:20:31;16.40;48.50
15574;DHT22;7888;46.748;8.102;2023-02-24T10:23:13;16.50;48.20
15574;DHT22;7888;46.748;8.102;2023-02-24T10:26:27;16.60;48.00
15574;DHT22;7888;46.748;8.102;2023-02-24T10:29:34;16.60;47.60
15574;DHT22;7888;46.748;8.102;2023-02-24T10:32:31;16.70;47.30
15574;DHT22;7888;46.748;8.102;2023-02-24T10:35:00;16.80;46.80
15574;DHT22;7888;46.748;8.102;2023-02-24T10:37:26;16.80;47.20
15574;DHT22;7888;46.748;8.102;2023-02-24T10:40:02;16.90;46.80
15574;DHT22;7888;46.748;8.102;2023-02-24T10:42:35;17.00;45.70
15574;DHT22;7888;46.748;8.102;2023-02-24T10:45:21;17.10;45.90
15574;DHT22;7888;46.748;8.102;2023-02-24T10:47:54;17.20;45.20
15574;DHT22;7888;46.748;8.102;2023-02-24T10:50:27;17.20;45.30
15574;DHT22;7888;46.748;8.102;2023-02-24T10:53:08;17.30;45.40
15574;DHT22;7888;46.748;8.102;2023-02-24T10:56:02;17.40;45.10
15574;DHT22;7888;46.748;8.102;2023-02-24T10:59:02;17.60;45.80
15574;DHT22;7888;46.748;8.102;2023-02-24T11:02:13;17.70;45.20
15574;DHT22;7888;46.748;8.102;2023-02-24T11:05:13;17.90;45.00
15574;DHT22;7888;46.748;8.102;2023-02-24T11:08:15;18.10;45.40
15574;DHT22;7888;46.748;8.102;2023-02-24T11:11:08;18.10;44.30
15574;DHT22;7888;46.748;8.102;2023-02-24T11:13:56;18.20;44.50
15574;DHT22;7888;46.748;8.102;2023-02-24T11:16:53;18.30;44.60
15574;DHT22;7888;46.748;8.102;2023-02-24T11:19:53;18.50;44.00
15574;DHT22;7888;46.748;8.102;2023-02-24T11:22:31;18.60;43.70
15574;DHT22;7888;46.748;8.102;2023-02-24T11:25:07;18.70;43.80
15574;DHT22;7888;46.748;8.102;2023-02-24T11:27:46;18.80;43.40
15574;DHT22;7888;46.748;8.102;2023-02-24T11:41:59;19.40;42.50
15574;DHT22;7888;46.748;8.102;2023-02-24T11:45:00;19.50;43.30
15574;DHT22;7888;46.748;8.102;2023-02-24T11:47:46;19.60;42.80
15574;DHT22;7888;46.748;8.102;2023-02-24T11:50:35;19.70;43.00
15574;DHT22;7888;46.748;8.102;2023-02-24T11:57:00;20.00;42.50
15574;DHT22;7888;46.748;8.102;2023-02-24T11:59:32;20.20;42.30
15574;DHT22;7888;46.748;8.102;2023-02-24T12:02:21;20.30;42.40
15574;DHT22;7888;46.748;8.102;2023-02-24T12:07:53;20.60;41.90
15574;DHT22;7888;46.748;8.102;2023-02-24T12:10:26;20.70;41.60
15574;DHT22;7888;46.748;8.102;2023-02-24T12:13:07;20.90;41.80
15574;DHT22;7888;46.748;8.102;2023-02-24T12:15:57;21.00;40.70
15574;DHT22;7888;46.748;8.102;2023-02-24T12:18:38;21.10;40.20
15574;DHT22;7888;46.748;8.102;2023-02-24T12:21:20;21.20;40.30
15574;DHT22;7888;46.748;8.102;2023-02-24T12:23:56;21.30;40.70
15574;DHT22;7888;46.748;8.102;2023-02-24T12:26:49;21.40;41.10
15574;DHT22;7888;46.748;8.102;2023-02-24T12:41:02;22.10;40.00
15574;DHT22;7888;46.748;8.102;2023-02-24T12:47:11;22.30;39.30
15574;DHT22;7888;46.748;8.102;2023-02-24T12:52:42;22.30;38.60
15574;DHT22;7888;46.748;8.102;2023-02-24T12:58:40;22.40;38.90
15574;DHT22;7888;46.748;8.102;2023-02-24T13:04:10;22.50;38.20
15574;DHT22;7888;46.748;8.102;2023-02-24T13:09:47;22.50;38.20
15574;DHT22;7888;46.748;8.102;2023-02-24T13:12:35;22.40;37.60
15574;DHT22;7888;46.748;8.102;2023-02-24T13:15:21;22.30;36.90
15574;DHT22;7888;46.748;8.102;2023-02-24T13:17:51;22.20;37.00
15574;DHT22;7888;46.748;8.102;2023-02-24T13:20:31;22.10;37.70
15574;DHT22;7888;46.748;8.102;2023-02-24T13:22:59;21.90;37.80
15574;DHT22;7888;46.748;8.102;2023-02-24T13:25:34;21.90;37.90
15574;DHT22;7888;46.748;8.102;2023-02-24T13:28:29;21.80;37.50
15574;DHT22;7888;46.748;8.102;2023-02-24T13:31:04;21.80;37.70
15574;DHT22;7888;46.748;8.102;2023-02-24T13:33:38;21.70;37.90
15574;DHT22;7888;46.748;8.102;2023-02-24T13:36:12;21.60;37.80
15574;DHT22;7888;46.748;8.102;2023-02-24T13:39:17;21.50;37.20
15574;DHT22;7888;46.748;8.102;2023-02-24T13:42:05;21.50;37.00
15574;DHT22;7888;46.748;8.102;2023-02-24T13:44:31;21.50;36.90
15574;DHT22;7888;46.748;8.102;2023-02-24T14:01:59;21.70;37.20
15574;DHT22;7888;46.748;8.102;2023-02-24T14:04:37;21.80;36.90
15574;DHT22;7888;46.748;8.102;2023-02-24T14:07:49;21.80;37.30
15574;DHT22;7888;46.748;8.102;2023-02-24T14:10:31;21.70;37.10
15574;DHT22;7888;46.748;8.102;2023-02-24T14:13:16;21.70;37.30
15574;DHT22;7888;46.748;8.102;2023-02-24T14:15:46;21.70;37.30
15574;DHT22;7888;46.748;8.102;2023-02-24T14:18:27;21.80;37.70
15574;DHT22;7888;46.748;8.102;2023-02-24T14:20:55;21.70;37.30
15574;DHT22;7888;46.748;8.102;2023-02-24T14:23:31;21.70;37.70
15574;DHT22;7888;46.748;8.102;2023-02-24T14:26:07;21.70;37.60
15574;DHT22;7888;46.748;8.102;2023-02-24T14:28:39;21.70;37.60
15574;DHT22;7888;46.748;8.102;2023-02-24T14:31:07;21.80;37.50
15574;DHT22;7888;46.748;8.102;2023-02-24T14:33:36;21.80;37.20
15574;DHT22;7888;46.748;8.102;2023-02-24T14:36:05;21.90;37.00
15574;DHT22;7888;46.748;8.102;2023-02-24T14:38:40;21.90;37.00
15574;DHT22;7888;46.748;8.102;2023-02-24T14:41:25;22.00;37.10
15574;DHT22;7888;46.748;8.102;2023-02-24T14:43:54;22.10;36.50
15574;DHT22;7888;46.748;8.102;2023-02-24T14:46:21;22.30;37.00
15574;DHT22;7888;46.748;8.102;2023-02-24T14:48:54;22.40;36.90
15574;DHT22;7888;46.748;8.102;2023-02-24T14:51:31;22.60;36.50
15574;DHT22;7888;46.748;8.102;2023-02-24T14:54:07;22.70;36.00
15574;DHT22;7888;46.748;8.102;2023-02-24T14:56:40;22.80;36.00
15574;DHT22;7888;46.748;8.102;2023-02-24T14:59:20;22.80;36.20
15574;DHT22;7888;46.748;8.102;2023-02-24T15:02:03;22.80;35.80
15574;DHT22;7888;46.748;8.102;2023-02-24T15:04:40;22.80;35.60
15574;DHT22;7888;46.748;8.102;2023-02-24T15:09:51;22.60;34.70
15574;DHT22;7888;46.748;8.102;2023-02-24T15:17:39;22.40;36.20
15574;DHT22;7888;46.748;8.102;2023-02-24T15:23:00;22.40;35.10
15574;DHT22;7888;46.748;8.102;2023-02-24T15:25:45;22.40;35.30
15574;DHT22;7888;46.748;8.102;2023-02-24T15:33:45;22.20;34.60
15574;DHT22;7888;46.748;8.102;2023-02-24T15:36:25;22.10;34.80
15574;DHT22;7888;46.748;8.102;2023-02-24T15:38:57;22.00;35.60
15574;DHT22;7888;46.748;8.102;2023-02-24T15:41:46;22.00;34.90
15574;DHT22;7888;46.748;8.102;2023-02-24T15:44:30;22.00;34.70
15574;DHT22;7888;46.748;8.102;2023-02-24T15:46:59;22.00;35.20
15574;DHT22;7888;46.748;8.102;2023-02-24T15:49:36;22.00;35.10
15574;DHT22;7888;46.748;8.102;2023-02-24T15:52:02;21.90;34.90
15574;DHT22;7888;46.748;8.102;2023-02-24T15:54:33;21.90;35.20
15574;DHT22;7888;46.748;8.102;2023-02-24T15:57:01;21.80;35.00
15574;DHT22;7888;46.748;8.102;2023-02-24T15:59:29;21.80;35.20
15574;DHT22;7888;46.748;8.102;2023-02-24T16:01:55;21.70;35.30
15574;DHT22;7888;46.748;8.102;2023-02-24T16:04:22;21.70;35.40
15574;DHT22;7888;46.748;8.102;2023-02-24T16:06:51;21.60;35.40
15574;DHT22;7888;46.748;8.102;2023-02-24T16:09:29;21.60;35.30
15574;DHT22;7888;46.748;8.102;2023-02-24T16:12:09;21.50;35.20
15574;DHT22;7888;46.748;8.102;2023-02-24T16:14:40;21.50;35.30
15574;DHT22;7888;46.748;8.102;2023-02-24T16:17:37;21.40;35.30
15574;DHT22;7888;46.748;8.102;2023-02-24T16:20:13;21.30;35.00
15574;DHT22;7888;46.748;8.102;2023-02-24T16:22:57;21.20;35.30
15574;DHT22;7888;46.748;8.102;2023-02-24T16:25:25;21.10;35.50
15574;DHT22;7888;46.748;8.102;2023-02-24T16:27:51;21.00;35.40
15574;DHT22;7888;46.748;8.102;2023-02-24T16:30:24;20.90;35.60
15574;DHT22;7888;46.748;8.102;2023-02-24T16:32:56;20.80;36.00
15574;DHT22;7888;46.748;8.102;2023-02-24T16:35:24;20.60;36.10
15574;DHT22;7888;46.748;8.102;2023-02-24T16:37:51;20.60;36.30
15574;DHT22;7888;46.748;8.102;2023-02-24T16:40:23;20.50;36.60
15574;DHT22;7888;46.748;8.102;2023-02-24T16:42:55;20.30;36.70
15574;DHT22;7888;46.748;8.102;2023-02-24T16:45:25;20.30;36.80
15574;DHT22;7888;46.748;8.102;2023-02-24T16:47:54;20.20;36.90
15574;DHT22;7888;46.748;8.102;2023-02-24T16:50:26;20.10;37.00
15574;DHT22;7888;46.748;8.102;2023-02-24T16:52:58;20.00;37.00
15574;DHT22;7888;46.748;8.102;2023-02-24T16:55:25;20.00;37.30
15574;DHT22;7888;46.748;8.102;2023-02-24T16:57:51;19.90;37.20
15574;DHT22;7888;46.748;8.102;2023-02-24T17:00:18;19.80;37.20
15574;DHT22;7888;46.748;8.102;2023-02-24T17:02:48;19.70;37.30
15574;DHT22;7888;46.748;8.102;2023-02-24T17:05:20;19.70;37.50
15574;DHT22;7888;46.748;8.102;2023-02-24T17:07:50;19.60;37.60
15574;DHT22;7888;46.748;8.102;2023-02-24T17:10:18;19.50;37.60
15574;DHT22;7888;46.748;8.102;2023-02-24T17:12:45;19.50;38.00
15574;DHT22;7888;46.748;8.102;2023-02-24T17:15:16;19.40;37.30
15574;DHT22;7888;46.748;8.102;2023-02-24T17:17:44;19.30;37.20
15574;DHT22;7888;46.748;8.102;2023-02-24T17:20:13;19.30;37.20
15574;DHT22;7888;46.748;8.102;2023-02-24T17:22:41;19.10;37.20
15574;DHT22;7888;46.748;8.102;2023-02-24T17:25:18;19.10;37.40
15574;DHT22;7888;46.748;8.102;2023-02-24T17:27:46;19.00;37.40
15574;DHT22;7888;46.748;8.102;2023-02-24T17:30:15;18.90;37.40
15574;DHT22;7888;46.748;8.102;2023-02-24T17:32:46;18.80;37.50
15574;DHT22;7888;46.748;8.102;2023-02-24T17:35:12;18.80;37.70
15574;DHT22;7888;46.748;8.102;2023-02-24T17:37:38;18.70;37.90
15574;DHT22;7888;46.748;8.102;2023-02-24T17:40:05;18.60;38.10
15574;DHT22;7888;46.748;8.102;2023-02-24T17:42:31;18.50;38.20
15574;DHT22;7888;46.748;8.102;2023-02-24T17:44:58;18.50;38.10
15574;DHT22;7888;46.748;8.102;2023-02-24T17:47:24;18.40;38.30
15574;DHT22;7888;46.748;8.102;2023-02-24T17:49:50;18.30;38.40
15574;DHT22;7888;46.748;8.102;2023-02-24T17:52:16;18.20;39.30
15574;DHT22;7888;46.748;8.102;2023-02-24T17:54:42;18.10;39.00
15574;DHT22;7888;46.748;8.102;2023-02-24T17:57:08;18.10;39.30
15574;DHT22;7888;46.748;8.102;2023-02-24T17:59:36;18.00;39.30
15574;DHT22;7888;46.748;8.102;2023-02-24T18:02:03;17.90;39.50
15574;DHT22;7888;46.748;8.102;2023-02-24T18:04:30;17.80;39.30
15574;DHT22;7888;46.748;8.102;2023-02-24T18:06:55;17.80;39.30
15574;DHT22;7888;46.748;8.102;2023-02-24T18:09:21;17.70;39.30
15574;DHT22;7888;46.748;8.102;2023-02-24T18:11:50;17.60;39.40
15574;DHT22;7888;46.748;8.102;2023-02-24T18:14:15;17.50;39.50
15574;DHT22;7888;46.748;8.102;2023-02-24T18:16:41;17.50;39.80
15574;DHT22;7888;46.748;8.102;2023-02-24T18:19:07;17.40;39.90
15574;DHT22;7888;46.748;8.102;2023-02-24T18:21:33;17.40;40.00
15574;DHT22;7888;46.748;8.102;2023-02-24T18:23:59;17.40;40.00
15574;DHT22;7888;46.748;8.102;2023-02-24T18:26:25;17.30;40.00
15574;DHT22;7888;46.748;8.102;2023-02-24T18:28:51;17.30;40.00
15574;DHT22;7888;46.748;8.102;2023-02-24T18:31:22;17.30;40.20
15574;DHT22;7888;46.748;8.102;2023-02-24T18:33:49;17.20;40.30
15574;DHT22;7888;46.748;8.102;2023-02-24T18:36:16;17.20;40.40
15574;DHT22;7888;46.748;8.102;2023-02-24T18:38:42;17.10;40.40
15574;DHT22;7888;46.748;8.102;2023-02-24T18:41:12;17.10;40.40
15574;DHT22;7888;46.748;8.102;2023-02-24T18:43:41;17.10;40.60
15574;DHT22;7888;46.748;8.102;2023-02-24T18:46:10;17.00;40.60
15574;DHT22;7888;46.748;8.102;2023-02-24T18:48:38;17.00;40.90